Time;durP1;ratioP1;P1;durP2;ratioP2;P2;SDS_P1;SDS_P2;PMS_P1;PMS_P2;Temp;Humidity;BMP_temperature;BMP_pressure;BME280_temperature;BME280_humidity;BME280_pressure;Samples;Min_cycle;Max_cycle;Signal;HPM_P1;HPM_P2
2021/10/19 00:00:22;;;;;;;24.53;20.40;;;11.40;40.40;;;;;;5099637;28;20533;-49
2021/10/19 00:02:51;;;;;;;25.53;20.07;;;11.40;32.30;;;;;;5100161;28;20517;-49
2021/10/19 00:05:18;;;;;;;26.33;20.77;;;11.40;33.60;;;;;;5098776;28;20676;-50
2021/10/19 00:07:45;;;;;;;24.40;19.47;;;11.40;28.00;;;;;;5099886;28;20460;-49
2021/10/19 00:10:14;;;;;;;23.10;18.57;;;11.50;33.80;;;;;;5113728;28;20494;-49
2021/10/19 00:12:42;;;;;;;23.53;18.60;;;11.40;39.20;;;;;;5118523;28;20463;-52
2021/10/19 00:15:12;;;;;;;22.63;18.93;;;11.50;40.20;;;;;;5116546;28;20868;-50
2021/10/19 00:17:41;;;;;;;23.80;20.33;;;11.50;44.80;;;;;;5118449;28;20894;-51
2021/10/19 00:20:11;;;;;;;25.23;19.63;;;11.50;46.90;;;;;;5099341;28;21004;-50
2021/10/19 00:22:38;;;;;;;26.53;21.30;;;11.50;37.30;;;;;;5102563;27;20514;-47
2021/10/19 00:25:06;;;;;;;22.47;17.97;;;11.50;35.70;;;;;;5119926;28;20460;-49
2021/10/19 00:27:36;;;;;;;20.63;17.83;;;11.60;44.20;;;;;;5114276;28;20459;-52
2021/10/19 00:30:09;;;;;;;21.20;18.67;;;11.60;37.60;;;;;;5138597;27;20816;-51
2021/10/19 00:32:37;;;;;;;23.00;18.37;;;11.60;42.00;;;;;;5113117;27;20769;-52
2021/10/19 00:35:04;;;;;;;21.73;18.40;;;11.70;30.30;;;;;;5099101;28;20498;-53
2021/10/19 00:37:31;;;;;;;24.57;19.17;;;11.70;26.80;;;;;;5101573;28;20909;-50
2021/10/19 00:39:58;;;;;;;21.77;18.47;;;11.70;28.50;;;;;;5099558;28;20503;-50
2021/10/19 00:42:28;;;;;;;20.10;17.80;;;11.70;19.10;;;;;;5102602;28;20460;-50
2021/10/19 00:44:57;;;;;;;23.83;19.10;;;11.80;17.60;;;;;;5100053;28;20457;-50
2021/10/19 00:47:26;;;;;;;22.20;17.47;;;11.80;17.70;;;;;;5100567;28;20482;-48
2021/10/19 00:49:53;;;;;;;22.10;18.40;;;11.80;22.60;;;;;;5102136;28;20528;-48
2021/10/19 00:52:23;;;;;;;20.90;17.80;;;11.80;25.50;;;;;;5099322;28;20841;-50
2021/10/19 00:54:51;;;;;;;21.07;18.07;;;11.80;31.20;;;;;;5102980;28;20522;-52
2021/10/19 00:57:20;;;;;;;21.60;17.73;;;11.90;31.60;;;;;;5099262;28;20902;-51
2021/10/19 00:59:48;;;;;;;22.63;18.80;;;11.90;27.00;;;;;;5106000;27;20521;-53
2021/10/19 01:02:16;;;;;;;22.60;17.37;;;11.90;26.00;;;;;;5101392;28;20480;-49
2021/10/19 01:04:45;;;;;;;22.60;18.30;;;12.00;25.40;;;;;;5108573;28;20553;-52
2021/10/19 01:07:14;;;;;;;21.17;17.07;;;12.00;20.60;;;;;;5119406;28;20487;-54
2021/10/19 01:09:41;;;;;;;19.47;16.90;;;12.00;19.90;;;;;;5103970;28;20461;-54
2021/10/19 01:12:10;;;;;;;22.00;19.00;;;12.10;17.90;;;;;;5098360;28;20808;-48
2021/10/19 01:14:37;;;;;;;21.47;17.37;;;12.10;13.50;;;;;;5102162;28;20461;-53
2021/10/19 01:17:05;;;;;;;20.10;16.77;;;12.10;12.00;;;;;;5099038;27;20460;-52
2021/10/19 01:19:32;;;;;;;22.73;18.30;;;12.10;6.00;;;;;;5117318;28;20464;-52
2021/10/19 01:22:04;;;;;;;18.20;16.30;;;12.10;4.20;;;;;;5113277;28;20456;-49
2021/10/19 01:24:31;;;;;;;21.90;17.27;;;12.10;5.10;;;;;;5119217;28;20500;-53
2021/10/19 01:26:58;;;;;;;19.13;16.80;;;12.10;8.90;;;;;;5112535;28;20521;-54
2021/10/19 01:29:25;;;;;;;19.30;17.20;;;12.10;14.40;;;;;;5124875;27;20543;-55
2021/10/19 01:31:54;;;;;;;19.37;17.13;;;12.10;12.70;;;;;;5116778;27;20578;-51
2021/10/19 01:34:23;;;;;;;20.87;17.83;;;12.20;16.50;;;;;;5098797;28;20554;-52
2021/10/19 01:36:51;;;;;;;20.33;17.80;;;12.20;27.40;;;;;;5108133;28;20468;-53
2021/10/19 01:39:19;;;;;;;25.53;20.50;;;12.20;57.10;;;;;;5118594;28;20459;-52
2021/10/19 01:41:49;;;;;;;23.20;19.70;;;12.10;99.90;;;;;;5112596;28;20517;-53
2021/10/19 01:44:17;;;;;;;19.30;17.20;;;12.10;99.90;;;;;;5117826;27;20510;-50
2021/10/19 01:46:44;;;;;;;22.73;18.60;;;12.10;99.90;;;;;;5114158;28;20460;-52
2021/10/19 01:49:11;;;;;;;22.60;18.83;;;12.10;99.90;;;;;;5115903;28;20533;-52
2021/10/19 01:51:40;;;;;;;20.87;17.47;;;12.10;99.90;;;;;;5098475;28;20830;-53
2021/10/19 01:54:07;;;;;;;19.73;17.60;;;12.10;99.90;;;;;;5099308;28;20498;-51
2021/10/19 01:56:36;;;;;;;20.27;18.10;;;12.00;99.90;;;;;;5118583;28;20464;-52
2021/10/19 01:59:03;;;;;;;21.67;18.00;;;12.00;99.90;;;;;;5112279;28;20459;-52
2021/10/19 02:01:30;;;;;;;23.37;17.23;;;12.10;99.90;;;;;;5105871;28;20456;-49
2021/10/19 02:03:57;;;;;;;22.17;19.27;;;12.00;99.90;;;;;;5104582;28;20528;-51
2021/10/19 02:06:24;;;;;;;20.07;17.20;;;12.10;99.90;;;;;;5118347;28;20491;-49
2021/10/19 02:08:51;;;;;;;20.57;18.37;;;12.10;99.90;;;;;;5106566;28;20463;-50
2021/10/19 02:11:18;;;;;;;20.63;18.13;;;12.10;99.90;;;;;;5097842;28;20502;-56
2021/10/19 02:13:47;;;;;;;21.27;17.90;;;12.10;99.90;;;;;;5110280;28;20455;-48
2021/10/19 02:16:14;;;;;;;22.17;18.87;;;12.10;99.90;;;;;;5117844;28;20755;-53
2021/10/19 02:18:42;;;;;;;23.07;19.70;;;12.10;99.90;;;;;;5101036;28;20463;-57
2021/10/19 02:21:09;;;;;;;20.10;18.00;;;12.10;99.90;;;;;;5097611;28;20894;-54
2021/10/19 02:23:36;;;;;;;21.83;18.73;;;12.10;99.90;;;;;;5115323;28;20463;-53
2021/10/19 02:26:03;;;;;;;21.87;17.93;;;12.10;99.90;;;;;;5112523;28;20514;-55
2021/10/19 02:28:32;;;;;;;20.03;17.83;;;12.10;99.90;;;;;;5123437;27;20478;-50
2021/10/19 02:31:00;;;;;;;24.37;18.10;;;12.20;99.90;;;;;;5123280;27;20454;-52
2021/10/19 02:33:27;;;;;;;20.40;16.40;;;12.10;99.90;;;;;;5117880;28;20464;-52
2021/10/19 02:35:54;;;;;;;25.93;18.53;;;12.10;99.90;;;;;;5111923;27;20870;-55
2021/10/19 02:38:21;;;;;;;22.03;17.67;;;12.20;99.90;;;;;;5117756;28;20434;-52
2021/10/19 02:40:48;;;;;;;22.50;17.83;;;12.20;99.90;;;;;;5111887;28;20455;-52
2021/10/19 02:43:16;;;;;;;24.20;18.07;;;12.10;99.90;;;;;;5117238;28;20459;-60
2021/10/19 02:45:43;;;;;;;19.60;17.30;;;12.10;99.90;;;;;;5111753;28;20880;-55
2021/10/19 02:48:11;;;;;;;20.17;17.63;;;12.00;1.00;;;;;;5117511;28;20459;-58
2021/10/19 02:50:38;;;;;;;21.80;19.33;;;12.00;1.00;;;;;;5111694;28;20494;-54
2021/10/19 02:53:05;;;;;;;22.57;18.70;;;12.00;1.00;;;;;;5117333;28;21020;-61
2021/10/19 02:55:32;;;;;;;21.60;19.27;;;11.90;94.80;;;;;;5117889;28;20548;-49
2021/10/19 02:57:59;;;;;;;21.80;19.50;;;11.90;99.90;;;;;;5117538;28;20463;-49
2021/10/19 03:00:26;;;;;;;24.33;19.37;;;11.80;1.00;;;;;;5119575;28;20455;-56
2021/10/19 03:02:53;;;;;;;22.20;18.60;;;11.80;99.90;;;;;;5121856;28;20491;-56
2021/10/19 03:05:21;;;;;;;22.17;18.80;;;11.80;1.00;;;;;;5121387;27;20755;-51
2021/10/19 03:07:48;;;;;;;27.50;19.37;;;11.70;1.00;;;;;;5121778;28;20467;-51
2021/10/19 03:10:15;;;;;;;25.27;20.80;;;11.70;79.80;;;;;;5121999;28;20887;-56
2021/10/19 03:12:42;;;;;;;23.63;20.47;;;11.70;99.90;;;;;;5112598;28;20917;-54
2021/10/19 03:15:10;;;;;;;23.00;19.33;;;11.70;99.90;;;;;;5100946;28;20460;-54
2021/10/19 03:17:37;;;;;;;22.63;20.17;;;11.70;99.90;;;;;;5110020;28;20445;-54
2021/10/19 03:20:07;;;;;;;24.20;19.20;;;11.70;1.00;;;;;;5121481;28;20459;-56
2021/10/19 03:22:35;;;;;;;23.87;20.03;;;11.70;99.90;;;;;;5115925;28;20928;-56
2021/10/19 03:25:03;;;;;;;22.73;19.67;;;11.70;99.90;;;;;;5120314;28;20466;-57
2021/10/19 03:27:30;;;;;;;22.33;18.50;;;11.70;1.00;;;;;;5103996;28;20460;-57
2021/10/19 03:29:59;;;;;;;21.70;17.27;;;11.70;1.00;;;;;;5130677;27;20480;-58
2021/10/19 03:32:26;;;;;;;22.60;19.23;;;11.70;99.90;;;;;;5102393;28;20526;-56
2021/10/19 03:34:53;;;;;;;23.77;19.93;;;11.70;99.90;;;;;;5103989;28;20434;-57
2021/10/19 03:37:20;;;;;;;22.73;19.70;;;11.70;99.90;;;;;;5100449;28;20514;-53
2021/10/19 03:39:48;;;;;;;26.20;22.73;;;11.70;1.00;;;;;;5103857;28;20491;-58
2021/10/19 03:42:15;;;;;;;24.07;20.00;;;11.70;1.00;;;;;;5121448;28;20459;-57
2021/10/19 03:44:42;;;;;;;24.83;20.33;;;11.70;1.00;;;;;;5112616;28;20492;-51
2021/10/19 03:47:10;;;;;;;25.93;20.10;;;11.70;99.90;;;;;;5100346;28;20515;-50
2021/10/19 03:49:36;;;;;;;24.10;19.50;;;11.70;99.90;;;;;;5109293;28;20506;-53
2021/10/19 03:52:04;;;;;;;23.33;20.50;;;11.60;99.90;;;;;;5120812;28;20523;-51
2021/10/19 03:54:34;;;;;;;22.50;19.70;;;11.60;99.90;;;;;;5114323;28;20459;-55
2021/10/19 03:57:05;;;;;;;24.37;20.67;;;11.60;99.90;;;;;;5120759;28;20464;-51
2021/10/19 03:59:32;;;;;;;24.50;20.10;;;11.60;99.90;;;;;;5103472;28;20470;-58
2021/10/19 04:02:01;;;;;;;25.63;21.50;;;11.60;99.90;;;;;;5112727;28;20460;-58
2021/10/19 04:04:34;;;;;;;26.33;21.73;;;11.60;99.90;;;;;;5118029;28;20463;-56
2021/10/19 04:07:01;;;;;;;25.50;20.20;;;11.60;99.90;;;;;;5114336;28;20464;-58
2021/10/19 04:09:28;;;;;;;22.97;20.47;;;11.60;99.90;;;;;;5120171;28;20531;-58
2021/10/19 04:11:55;;;;;;;27.43;22.50;;;11.60;99.90;;;;;;5114343;28;20937;-60
2021/10/19 04:14:26;;;;;;;26.53;21.83;;;11.60;99.90;;;;;;5100176;28;20474;-59
2021/10/19 04:16:53;;;;;;;31.10;22.03;;;11.60;99.90;;;;;;5103096;28;20569;-57
2021/10/19 04:19:20;;;;;;;27.97;21.60;;;11.60;99.90;;;;;;5099726;28;20941;-60
2021/10/19 04:21:49;;;;;;;26.60;21.23;;;11.60;99.90;;;;;;5102814;28;20504;-62
2021/10/19 04:24:17;;;;;;;23.30;20.03;;;11.60;99.90;;;;;;5099562;28;20467;-62
2021/10/19 04:26:44;;;;;;;25.37;21.80;;;11.60;99.90;;;;;;5103598;28;20468;-62
2021/10/19 04:29:11;;;;;;;26.87;23.30;;;11.60;99.90;;;;;;5099630;28;20488;-62
2021/10/19 04:31:41;;;;;;;26.90;22.70;;;11.60;99.90;;;;;;5115061;28;20463;-62
2021/10/19 04:34:09;;;;;;;24.67;21.97;;;11.60;99.90;;;;;;5116287;28;20472;-62
2021/10/19 04:36:37;;;;;;;24.83;22.00;;;11.60;99.90;;;;;;5118333;28;20496;-62
2021/10/19 04:39:04;;;;;;;26.50;22.87;;;11.60;99.90;;;;;;5114102;28;20510;-62
2021/10/19 04:41:31;;;;;;;22.27;19.07;;;11.60;99.90;;;;;;5119962;28;20526;-62
2021/10/19 04:43:57;;;;;;;26.30;20.50;;;11.60;99.90;;;;;;5114060;28;20523;-62
2021/10/19 04:46:24;;;;;;;23.47;20.70;;;11.60;99.90;;;;;;5099529;28;20981;-63
2021/10/19 04:48:53;;;;;;;24.87;20.20;;;11.70;99.90;;;;;;5102644;28;20514;-63
2021/10/19 04:51:20;;;;;;;23.40;20.90;;;11.70;99.90;;;;;;5099281;28;20544;-62
2021/10/19 04:53:47;;;;;;;23.77;19.13;;;11.70;99.90;;;;;;5102600;28;20963;-62
2021/10/19 04:56:14;;;;;;;21.53;18.50;;;11.70;99.90;;;;;;5099310;28;20561;-61
2021/10/19 04:58:41;;;;;;;23.17;18.20;;;11.80;99.90;;;;;;5102301;28;20908;-61
2021/10/19 05:01:08;;;;;;;25.73;20.00;;;11.80;99.90;;;;;;5107186;28;20486;-59
2021/10/19 05:03:35;;;;;;;23.57;18.73;;;11.90;99.90;;;;;;5113499;28;20456;-61
2021/10/19 05:06:03;;;;;;;21.67;18.97;;;11.90;99.90;;;;;;5117453;28;20537;-60
2021/10/19 05:08:31;;;;;;;20.40;18.30;;;11.90;99.90;;;;;;5101438;28;20464;-61
2021/10/19 05:10:58;;;;;;;19.67;17.67;;;12.00;99.90;;;;;;5101510;28;20483;-61
2021/10/19 05:13:27;;;;;;;16.90;15.20;;;12.00;99.90;;;;;;5098480;28;20553;-61
2021/10/19 05:15:54;;;;;;;18.10;16.20;;;11.90;99.90;;;;;;5101940;28;20883;-61
2021/10/19 05:18:22;;;;;;;19.30;16.90;;;12.00;99.90;;;;;;5098606;28;20496;-61
2021/10/19 05:20:51;;;;;;;18.20;15.60;;;12.00;99.90;;;;;;5119508;27;20822;-62
2021/10/19 05:23:26;;;;;;;17.80;15.90;;;12.00;99.90;;;;;;5130365;27;20462;-61
2021/10/19 05:25:52;;;;;;;18.23;16.30;;;12.00;99.90;;;;;;5106810;28;20519;-58
2021/10/19 05:28:20;;;;;;;18.43;16.30;;;12.00;99.90;;;;;;5124141;27;20798;-60
2021/10/19 05:30:47;;;;;;;15.93;14.30;;;12.00;99.90;;;;;;5107360;27;20526;-62
2021/10/19 05:33:16;;;;;;;15.20;13.60;;;12.10;99.90;;;;;;5098044;28;21000;-59
2021/10/19 05:35:43;;;;;;;17.20;15.40;;;12.10;99.90;;;;;;5117218;27;20516;-60
2021/10/19 05:38:13;;;;;;;16.80;15.00;;;12.10;99.90;;;;;;5133837;27;20513;-61
2021/10/19 05:40:43;;;;;;;17.57;15.23;;;12.10;99.90;;;;;;5115938;28;20459;-62
2021/10/19 05:43:13;;;;;;;18.37;16.00;;;12.10;99.90;;;;;;5115790;28;20449;-61
2021/10/19 05:45:40;;;;;;;17.03;14.47;;;12.00;99.90;;;;;;5098207;28;20569;-62
2021/10/19 05:48:07;;;;;;;17.83;15.40;;;12.00;99.90;;;;;;5101428;28;20455;-61
2021/10/19 05:50:34;;;;;;;16.97;14.43;;;12.00;99.90;;;;;;5118715;28;20505;-61
2021/10/19 05:53:01;;;;;;;17.57;15.43;;;12.00;99.90;;;;;;5120220;27;20490;-61
2021/10/19 05:55:28;;;;;;;16.03;14.30;;;12.00;99.90;;;;;;5138175;27;20520;-61
2021/10/19 05:57:56;;;;;;;19.20;16.97;;;12.00;99.90;;;;;;5113105;27;20889;-61
2021/10/19 06:00:23;;;;;;;15.37;13.80;;;12.00;99.90;;;;;;5100290;28;20467;-61
2021/10/19 06:02:53;;;;;;;16.43;13.83;;;12.00;99.90;;;;;;5111984;28;20452;-62
2021/10/19 06:05:20;;;;;;;15.83;14.13;;;12.10;99.90;;;;;;5119666;27;20493;-62
2021/10/19 06:07:47;;;;;;;19.37;17.37;;;12.00;99.90;;;;;;5100288;28;20468;-63
2021/10/19 06:10:19;;;;;;;17.00;15.20;;;12.00;99.90;;;;;;5098299;28;20461;-63
2021/10/19 06:12:46;;;;;;;15.77;13.87;;;12.00;99.90;;;;;;5115620;28;20483;-63
2021/10/19 06:15:16;;;;;;;25.93;20.33;;;12.00;99.90;;;;;;5116914;28;20835;-63
2021/10/19 06:17:42;;;;;;;14.00;11.83;;;12.00;99.90;;;;;;5118363;28;20464;-64
2021/10/19 06:20:11;;;;;;;18.70;15.67;;;12.00;99.90;;;;;;5117968;28;20464;-64
2021/10/19 06:22:40;;;;;;;15.03;12.40;;;12.10;99.90;;;;;;5118236;28;20466;-66
2021/10/19 06:25:08;;;;;;;12.83;11.07;;;12.00;99.90;;;;;;5117881;28;20951;-65
2021/10/19 06:27:35;;;;;;;13.63;12.33;;;12.10;99.90;;;;;;5117657;28;20553;-64
2021/10/19 06:30:06;;;;;;;11.63;10.33;;;12.10;99.90;;;;;;5117845;28;20459;-65
2021/10/19 06:32:40;;;;;;;11.43;10.10;;;12.10;99.90;;;;;;5117930;28;20580;-66
2021/10/19 06:35:09;;;;;;;10.57;9.03;;;12.10;99.90;;;;;;5117711;28;20463;-66
2021/10/19 06:37:36;;;;;;;15.77;12.73;;;12.10;99.90;;;;;;5117646;28;20971;-66
2021/10/19 06:40:06;;;;;;;12.30;11.10;;;12.10;99.90;;;;;;5117785;28;20960;-66
2021/10/19 06:42:34;;;;;;;10.80;9.70;;;12.10;99.90;;;;;;5117930;28;20449;-66
2021/10/19 06:45:01;;;;;;;9.90;9.00;;;12.20;99.90;;;;;;5116170;28;20466;-67
2021/10/19 06:47:29;;;;;;;9.53;8.60;;;12.20;99.90;;;;;;5117152;28;20562;-66
2021/10/19 06:50:00;;;;;;;13.40;12.00;;;12.30;99.90;;;;;;5117017;28;20550;-66
2021/10/19 06:52:29;;;;;;;8.57;7.73;;;12.30;99.90;;;;;;5107952;28;20492;-67
2021/10/19 06:54:57;;;;;;;8.83;7.93;;;12.20;99.90;;;;;;5115639;28;20441;-66
2021/10/19 06:57:24;;;;;;;9.40;8.50;;;12.30;99.90;;;;;;5116818;28;20520;-67
2021/10/19 06:59:51;;;;;;;9.70;8.13;;;12.30;99.90;;;;;;5116978;28;20491;-67
2021/10/19 07:02:18;;;;;;;8.30;7.50;;;12.30;99.90;;;;;;5116394;28;20817;-68
2021/10/19 07:04:47;;;;;;;8.60;7.80;;;12.30;99.90;;;;;;5116894;28;20459;-69
2021/10/19 07:07:16;;;;;;;8.53;7.73;;;12.30;99.90;;;;;;5116753;28;20463;-69
2021/10/19 07:09:42;;;;;;;7.90;7.10;;;12.30;99.90;;;;;;5112382;28;20518;-70
2021/10/19 07:12:10;;;;;;;7.03;6.43;;;12.30;99.90;;;;;;5115958;28;20890;-67
2021/10/19 07:14:37;;;;;;;6.70;5.90;;;12.30;99.90;;;;;;5109845;28;20523;-67
2021/10/19 07:17:04;;;;;;;6.10;5.50;;;12.30;99.90;;;;;;5096708;28;20605;-67
2021/10/19 07:19:31;;;;;;;6.13;5.43;;;12.30;99.90;;;;;;5100325;28;20499;-67
2021/10/19 07:22:00;;;;;;;6.13;5.63;;;12.30;99.90;;;;;;5097172;28;20491;-68
2021/10/19 07:24:30;;;;;;;6.50;5.97;;;12.30;99.90;;;;;;5096569;28;20460;-67
2021/10/19 07:26:56;;;;;;;9.30;6.70;;;12.30;99.90;;;;;;5111353;28;20482;-67
2021/10/19 07:29:23;;;;;;;6.30;5.67;;;12.30;99.90;;;;;;5115717;28;20456;-67
2021/10/19 07:31:53;;;;;;;7.30;6.60;;;12.40;99.90;;;;;;5114886;28;20498;-67
2021/10/19 07:34:23;;;;;;;7.33;6.63;;;12.40;99.90;;;;;;5115365;28;20491;-67
2021/10/19 07:36:53;;;;;;;7.70;7.00;;;12.40;99.90;;;;;;5115949;28;20889;-66
2021/10/19 07:39:27;;;;;;;6.93;6.33;;;12.40;99.90;;;;;;5115519;28;20459;-66
2021/10/19 07:41:57;;;;;;;17.60;13.27;;;12.50;99.90;;;;;;5116795;28;20465;-67
2021/10/19 07:44:24;;;;;;;21.43;15.30;;;12.50;99.90;;;;;;5116712;28;20795;-69
2021/10/19 07:46:52;;;;;;;24.00;17.60;;;12.50;99.90;;;;;;5118992;28;20775;-68
2021/10/19 07:49:22;;;;;;;11.70;10.07;;;12.50;99.90;;;;;;5124612;27;20792;-67
2021/10/19 07:51:50;;;;;;;8.93;7.80;;;12.60;99.90;;;;;;5127458;27;20517;-68
2021/10/19 07:54:18;;;;;;;7.00;6.30;;;12.60;99.90;;;;;;5114546;28;20491;-68
2021/10/19 07:56:45;;;;;;;24.50;19.73;;;12.60;99.90;;;;;;5120381;28;20498;-69
2021/10/19 07:59:13;;;;;;;12.97;11.60;;;12.60;99.90;;;;;;5120462;28;20830;-68
2021/10/19 08:01:45;;;;;;;14.57;11.90;;;12.70;99.90;;;;;;5119820;28;20487;-67
2021/10/19 08:04:12;;;;;;;9.73;8.27;;;12.60;99.90;;;;;;5117452;28;20505;-66
2021/10/19 08:06:39;;;;;;;8.20;7.40;;;12.70;99.90;;;;;;5108102;27;20988;-66
2021/10/19 08:09:06;;;;;;;10.33;9.30;;;12.70;99.90;;;;;;5099194;28;20464;-66
2021/10/19 08:11:34;;;;;;;6.83;6.23;;;12.70;99.90;;;;;;5115476;28;20460;-67
2021/10/19 08:14:00;;;;;;;7.10;6.47;;;12.70;99.90;;;;;;5119756;28;20546;-66
2021/10/19 08:16:29;;;;;;;9.30;8.40;;;12.70;99.90;;;;;;5110255;27;20438;-66
2021/10/19 08:18:58;;;;;;;7.73;6.90;;;12.80;99.90;;;;;;5111183;28;20467;-66
2021/10/19 08:21:25;;;;;;;7.90;6.00;;;12.80;99.90;;;;;;5101424;28;20759;-66
2021/10/19 08:23:52;;;;;;;7.37;6.47;;;12.80;99.90;;;;;;5116341;28;20856;-67
2021/10/19 08:26:19;;;;;;;6.33;5.60;;;12.80;99.90;;;;;;5120402;28;20463;-67
2021/10/19 08:28:49;;;;;;;8.13;6.70;;;12.90;99.90;;;;;;5139661;27;20463;-67
2021/10/19 08:31:17;;;;;;;8.20;6.60;;;12.90;99.90;;;;;;5140257;27;20509;-67
2021/10/19 08:33:50;;;;;;;7.40;6.37;;;12.90;99.90;;;;;;5140328;27;20486;-67
2021/10/19 08:36:18;;;;;;;10.17;9.17;;;12.90;99.90;;;;;;5139421;27;20486;-67
2021/10/19 08:38:48;;;;;;;6.20;5.00;;;13.00;99.90;;;;;;5139732;27;20502;-67
2021/10/19 08:41:15;;;;;;;5.70;5.20;;;13.00;99.90;;;;;;5139787;27;20458;-66
2021/10/19 08:43:43;;;;;;;4.93;4.43;;;13.00;99.90;;;;;;5140810;27;20455;-66
2021/10/19 08:46:10;;;;;;;6.23;5.53;;;13.00;99.90;;;;;;5098954;28;20463;-67
2021/10/19 08:48:39;;;;;;;5.70;5.20;;;13.00;99.90;;;;;;5099415;28;20510;-67
2021/10/19 08:51:07;;;;;;;7.27;5.70;;;13.00;99.90;;;;;;5099371;28;20526;-67
2021/10/19 08:53:37;;;;;;;5.83;5.33;;;13.00;99.90;;;;;;5098706;28;20542;-68
2021/10/19 08:56:05;;;;;;;5.37;4.83;;;13.10;99.90;;;;;;5099281;28;20460;-67
2021/10/19 08:58:35;;;;;;;5.97;5.47;;;13.10;99.90;;;;;;5098144;28;20522;-67
2021/10/19 09:01:12;;;;;;;6.73;6.17;;;13.10;99.90;;;;;;5106351;28;20455;-68
2021/10/19 09:03:50;;;;;;;5.50;5.00;;;13.10;99.90;;;;;;5119447;28;20558;-68
2021/10/19 09:06:36;;;;;;;5.03;4.53;;;13.10;99.90;;;;;;5119281;28;20486;-68
2021/10/19 09:09:09;;;;;;;4.60;4.13;;;13.10;99.90;;;;;;5119173;28;20463;-68
2021/10/19 09:11:40;;;;;;;4.20;3.80;;;13.20;99.90;;;;;;5118658;28;20455;-69
2021/10/19 09:14:11;;;;;;;5.23;4.73;;;13.20;99.90;;;;;;5119436;28;20527;-68
2021/10/19 09:16:42;;;;;;;7.20;4.80;;;13.30;99.90;;;;;;5119471;28;20554;-67
2021/10/19 09:19:09;;;;;;;4.77;4.37;;;13.30;99.90;;;;;;5118736;28;20468;-67
2021/10/19 09:21:42;;;;;;;4.97;4.57;;;13.30;99.90;;;;;;5118579;28;20460;-67
2021/10/19 09:24:33;;;;;;;4.73;4.33;;;13.30;99.90;;;;;;5119557;28;20451;-67
2021/10/19 09:27:01;;;;;;;9.03;4.30;;;13.30;99.90;;;;;;5122576;27;20511;-67
2021/10/19 09:29:29;;;;;;;6.57;5.03;;;13.30;99.90;;;;;;5139419;27;20458;-67
2021/10/19 09:31:58;;;;;;;16.23;12.20;;;13.30;99.90;;;;;;5139410;27;20455;-67
2021/10/19 09:34:28;;;;;;;13.53;10.97;;;13.30;99.90;;;;;;5139772;27;20556;-68
2021/10/19 09:36:58;;;;;;;13.03;9.97;;;13.30;99.90;;;;;;5139191;27;20463;-66
2021/10/19 09:39:33;;;;;;;8.80;7.87;;;13.40;99.90;;;;;;5139245;27;20498;-66
2021/10/19 09:42:01;;;;;;;8.80;7.40;;;13.40;99.90;;;;;;5139510;27;20462;-65
2021/10/19 09:44:28;;;;;;;22.90;17.03;;;13.40;99.90;;;;;;5133091;27;20520;-67
2021/10/19 09:47:04;;;;;;;13.50;12.10;;;13.50;99.90;;;;;;5118271;28;20766;-66
2021/10/19 09:49:32;;;;;;;7.13;6.43;;;13.50;99.90;;;;;;5118335;28;20459;-67
2021/10/19 09:52:06;;;;;;;11.67;10.50;;;13.50;99.90;;;;;;5117896;28;20517;-66
2021/10/19 09:54:36;;;;;;;8.87;7.93;;;13.60;99.90;;;;;;5118699;28;20769;-67
2021/10/19 09:57:06;;;;;;;15.00;12.83;;;13.60;99.90;;;;;;5118396;28;20478;-67
2021/10/19 09:59:34;;;;;;;8.57;7.47;;;13.70;99.90;;;;;;5118393;28;20464;-67
2021/10/19 10:02:02;;;;;;;6.83;6.13;;;13.70;99.90;;;;;;5102047;28;20468;-67
2021/10/19 10:04:35;;;;;;;11.40;9.70;;;13.70;99.90;;;;;;5097849;28;20508;-67
2021/10/19 10:07:05;;;;;;;5.80;5.03;;;13.70;99.90;;;;;;5096923;28;20460;-67
2021/10/19 10:09:36;;;;;;;4.03;3.63;;;13.80;99.90;;;;;;5097204;28;20500;-68
2021/10/19 10:12:06;;;;;;;4.33;3.93;;;13.70;99.90;;;;;;5098205;28;20461;-67
2021/10/19 10:14:41;;;;;;;8.03;7.00;;;13.80;99.90;;;;;;5098063;28;20546;-67
2021/10/19 10:17:10;;;;;;;6.00;5.10;;;13.90;99.90;;;;;;5097158;28;20459;-68
2021/10/19 10:19:40;;;;;;;7.43;5.00;;;13.90;99.90;;;;;;5097707;28;20486;-67
2021/10/19 10:22:22;;;;;;;4.70;4.20;;;14.00;99.90;;;;;;5121613;27;20894;-68
2021/10/19 10:24:49;;;;;;;6.03;4.63;;;14.00;99.90;;;;;;5118012;28;20430;-68
2021/10/19 10:27:20;;;;;;;6.90;5.33;;;14.00;99.90;;;;;;5119259;27;20512;-68
2021/10/19 10:29:48;;;;;;;3.50;3.20;;;14.10;99.90;;;;;;5137694;27;20974;-68
2021/10/19 10:32:23;;;;;;;3.90;3.50;;;14.00;99.90;;;;;;5138586;27;20459;-68
2021/10/19 10:35:04;;;;;;;6.83;6.13;;;14.00;99.90;;;;;;5138315;27;20525;-67
2021/10/19 10:37:40;;;;;;;3.90;3.10;;;14.00;99.90;;;;;;5124429;27;20880;-67
2021/10/19 10:40:12;;;;;;;3.97;3.67;;;14.10;99.90;;;;;;5117821;28;20890;-67
2021/10/19 10:42:40;;;;;;;3.80;3.40;;;14.10;99.90;;;;;;5096666;28;20517;-67
2021/10/19 10:45:22;;;;;;;3.83;3.37;;;14.10;99.90;;;;;;5111314;28;20513;-67
2021/10/19 10:47:55;;;;;;;4.00;3.60;;;14.20;99.90;;;;;;5109079;28;20532;-67
2021/10/19 10:50:22;;;;;;;3.90;3.37;;;14.20;99.90;;;;;;5099646;28;20460;-68
2021/10/19 10:53:07;;;;;;;3.80;3.27;;;14.30;99.90;;;;;;5097319;28;20578;-69
2021/10/19 10:55:41;;;;;;;3.13;2.90;;;14.40;99.90;;;;;;5094779;28;20496;-68
2021/10/19 10:58:09;;;;;;;3.77;3.20;;;14.30;99.90;;;;;;5097425;28;20521;-67
2021/10/19 11:00:37;;;;;;;3.10;2.80;;;14.30;99.90;;;;;;5097401;28;20753;-69
2021/10/19 11:03:11;;;;;;;3.83;3.40;;;14.40;99.90;;;;;;5096597;28;20461;-72
2021/10/19 11:05:50;;;;;;;3.10;2.90;;;14.40;99.90;;;;;;5097047;28;20495;-71
2021/10/19 11:08:23;;;;;;;5.27;4.13;;;14.50;99.90;;;;;;5097398;28;20563;-71
2021/10/19 11:11:04;;;;;;;3.00;2.70;;;14.50;99.90;;;;;;5096739;28;20503;-70
2021/10/19 11:13:47;;;;;;;3.83;2.83;;;14.60;99.90;;;;;;5096910;28;20472;-71
2021/10/19 11:16:21;;;;;;;3.53;2.80;;;14.70;99.90;;;;;;5097258;28;20467;-72
2021/10/19 11:18:57;;;;;;;3.13;2.83;;;14.70;99.90;;;;;;5096816;28;20488;-72
2021/10/19 11:21:23;;;;;;;2.87;2.67;;;14.70;99.90;;;;;;5101713;27;20511;-70
2021/10/19 11:23:55;;;;;;;3.20;2.87;;;14.70;99.90;;;;;;5131660;27;20826;-69
2021/10/19 11:26:22;;;;;;;2.87;2.67;;;14.70;99.90;;;;;;5128575;27;20447;-69
2021/10/19 11:28:50;;;;;;;3.00;2.70;;;14.70;99.90;;;;;;5130479;27;20902;-71
2021/10/19 11:31:22;;;;;;;3.60;3.03;;;14.70;99.90;;;;;;5131927;27;20470;-70
2021/10/19 11:33:52;;;;;;;3.67;3.00;;;14.70;99.90;;;;;;5130388;27;20462;-71
2021/10/19 11:36:20;;;;;;;2.67;2.47;;;14.80;99.90;;;;;;5130100;27;20462;-70
2021/10/19 11:38:51;;;;;;;3.57;3.00;;;14.80;99.90;;;;;;5131447;27;20459;-69
2021/10/19 11:41:30;;;;;;;3.20;2.90;;;14.90;99.90;;;;;;5131597;27;20455;-69
2021/10/19 11:44:02;;;;;;;4.30;3.80;;;14.90;99.90;;;;;;5130949;27;20455;-69
2021/10/19 11:46:32;;;;;;;2.80;2.60;;;14.90;99.90;;;;;;5128657;27;20516;-68
2021/10/19 11:49:04;;;;;;;3.20;2.90;;;14.90;99.90;;;;;;5131973;27;20527;-68
2021/10/19 11:51:36;;;;;;;3.77;3.17;;;14.90;99.90;;;;;;5141293;27;20527;-69
2021/10/19 11:54:04;;;;;;;2.97;2.77;;;14.90;99.90;;;;;;5141212;27;20522;-68
2021/10/19 11:56:32;;;;;;;3.10;2.80;;;14.80;99.90;;;;;;5140710;27;20462;-68
2021/10/19 11:59:03;;;;;;;3.30;2.80;;;14.80;99.90;;;;;;5140618;27;20494;-68
2021/10/19 12:01:38;;;;;;;4.07;3.20;;;14.80;99.90;;;;;;5129552;27;20459;-68
2021/10/19 12:04:08;;;;;;;3.10;2.73;;;14.80;99.90;;;;;;5120706;28;20458;-67
2021/10/19 12:06:36;;;;;;;6.97;6.10;;;14.80;99.90;;;;;;5121532;27;20777;-67
2021/10/19 12:09:12;;;;;;;15.23;10.40;;;14.80;99.90;;;;;;5131798;27;20455;-68
2021/10/19 12:11:46;;;;;;;19.23;12.73;;;14.90;99.90;;;;;;5123063;27;20452;-67
2021/10/19 12:14:13;;;;;;;8.10;6.90;;;14.90;99.90;;;;;;5120675;28;20522;-68
2021/10/19 12:16:40;;;;;;;7.90;6.57;;;14.90;99.90;;;;;;5137011;27;20458;-66
2021/10/19 12:19:07;;;;;;;4.73;4.33;;;14.90;99.90;;;;;;5140648;27;20486;-67
2021/10/19 12:21:34;;;;;;;5.23;4.43;;;14.90;99.90;;;;;;5140734;27;20458;-67
2021/10/19 12:24:06;;;;;;;5.20;4.70;;;15.00;99.90;;;;;;5133745;27;20546;-67
2021/10/19 12:26:38;;;;;;;6.03;5.53;;;15.00;99.90;;;;;;5120137;28;20491;-67
2021/10/19 12:29:08;;;;;;;5.77;5.13;;;15.10;99.90;;;;;;5119964;28;20487;-68
2021/10/19 12:31:38;;;;;;;5.10;4.47;;;15.00;99.90;;;;;;5120150;28;20886;-67
2021/10/19 12:34:09;;;;;;;5.73;5.17;;;15.00;99.90;;;;;;5120106;28;20459;-67
2021/10/19 12:36:37;;;;;;;4.93;4.53;;;15.00;99.90;;;;;;5120321;28;20470;-68
2021/10/19 12:39:13;;;;;;;9.23;8.33;;;15.00;99.90;;;;;;5119443;28;20495;-68
2021/10/19 12:41:42;;;;;;;6.70;6.10;;;15.10;99.90;;;;;;5131176;27;20469;-67
2021/10/19 12:44:12;;;;;;;10.93;9.77;;;15.10;99.90;;;;;;5140881;27;20439;-67